sensor_id;sensor_type;location;lat;lon;timestamp;P1;durP1;ratioP1;P2;durP2;ratioP2
20065;SDS011;10193;48.884;9.182;2024-02-16T00:01:13;3.95;;;2.70;;
20065;SDS011;10193;48.884;9.182;2024-02-16T00:03:40;2.78;;;2.58;;
20065;SDS011;10193;48.884;9.182;2024-02-16T00:06:07;3.42;;;2.60;;
20065;SDS011;10193;48.884;9.182;2024-02-16T00:08:33;3.38;;;3.08;;
20065;SDS011;10193;48.884;9.182;2024-02-16T00:11:03;3.58;;;2.83;;
20065;SDS011;10193;48.884;9.182;2024-02-16T00:13:30;2.95;;;2.75;;
20065;SDS011;10193;48.884;9.182;2024-02-16T00:15:58;3.05;;;2.75;;
20065;SDS011;10193;48.884;9.182;2024-02-16T00:18:25;2.70;;;2.50;;
20065;SDS011;10193;48.884;9.182;2024-02-16T00:20:52;3.60;;;3.00;;
20065;SDS011;10193;48.884;9.182;2024-02-16T00:23:18;3.17;;;2.95;;
20065;SDS011;10193;48.884;9.182;2024-02-16T00:25:47;3.40;;;2.97;;
20065;SDS011;10193;48.884;9.182;2024-02-16T00:28:14;3.92;;;3.20;;
20065;SDS011;10193;48.884;9.182;2024-02-16T00:30:40;4.57;;;3.28;;
20065;SDS011;10193;48.884;9.182;2024-02-16T00:33:08;3.67;;;3.00;;
20065;SDS011;10193;48.884;9.182;2024-02-16T00:35:35;3.58;;;3.28;;
20065;SDS011;10193;48.884;9.182;2024-02-16T00:38:02;3.50;;;3.20;;
20065;SDS011;10193;48.884;9.182;2024-02-16T00:40:29;4.72;;;3.50;;
20065;SDS011;10193;48.884;9.182;2024-02-16T00:42:55;4.03;;;3.30;;
20065;SDS011;10193;48.884;9.182;2024-02-16T00:45:22;4.78;;;3.55;;
20065;SDS011;10193;48.884;9.182;2024-02-16T00:47:49;4.43;;;3.33;;
20065;SDS011;10193;48.884;9.182;2024-02-16T00:50:17;4.10;;;3.22;;
20065;SDS011;10193;48.884;9.182;2024-02-16T00:52:43;4.78;;;4.03;;
20065;SDS011;10193;48.884;9.182;2024-02-16T00:55:10;4.60;;;3.70;;
20065;SDS011;10193;48.884;9.182;2024-02-16T00:57:38;5.45;;;4.07;;
20065;SDS011;10193;48.884;9.182;2024-02-16T01:00:05;5.40;;;3.80;;
20065;SDS011;10193;48.884;9.182;2024-02-16T01:02:34;4.13;;;3.67;;
20065;SDS011;10193;48.884;9.182;2024-02-16T01:05:00;3.78;;;3.38;;
20065;SDS011;10193;48.884;9.182;2024-02-16T01:07:29;3.83;;;3.45;;
20065;SDS011;10193;48.884;9.182;2024-02-16T01:09:57;4.15;;;3.50;;
20065;SDS011;10193;48.884;9.182;2024-02-16T01:12:25;3.80;;;3.13;;
20065;SDS011;10193;48.884;9.182;2024-02-16T01:14:51;3.33;;;3.00;;
20065;SDS011;10193;48.884;9.182;2024-02-16T01:17:18;4.68;;;3.40;;
20065;SDS011;10193;48.884;9.182;2024-02-16T01:19:44;4.22;;;3.83;;
20065;SDS011;10193;48.884;9.182;2024-02-16T01:22:12;4.10;;;3.70;;
20065;SDS011;10193;48.884;9.182;2024-02-16T01:24:40;3.65;;;3.35;;
20065;SDS011;10193;48.884;9.182;2024-02-16T01:27:06;3.83;;;3.42;;
20065;SDS011;10193;48.884;9.182;2024-02-16T01:29:33;3.97;;;3.58;;
20065;SDS011;10193;48.884;9.182;2024-02-16T01:32:00;3.50;;;3.20;;
20065;SDS011;10193;48.884;9.182;2024-02-16T01:34:28;3.45;;;3.15;;
20065;SDS011;10193;48.884;9.182;2024-02-16T01:36:56;3.10;;;2.85;;
20065;SDS011;10193;48.884;9.182;2024-02-16T01:39:23;3.28;;;2.97;;
20065;SDS011;10193;48.884;9.182;2024-02-16T01:41:51;3.53;;;2.80;;
20065;SDS011;10193;48.884;9.182;2024-02-16T01:44:17;4.35;;;3.10;;
20065;SDS011;10193;48.884;9.182;2024-02-16T01:46:44;2.97;;;2.67;;
20065;SDS011;10193;48.884;9.182;2024-02-16T01:49:12;2.83;;;2.63;;
20065;SDS011;10193;48.884;9.182;2024-02-16T01:51:40;2.83;;;2.60;;
20065;SDS011;10193;48.884;9.182;2024-02-16T01:54:09;4.07;;;2.80;;
20065;SDS011;10193;48.884;9.182;2024-02-16T01:56:36;2.75;;;2.55;;
20065;SDS011;10193;48.884;9.182;2024-02-16T01:59:04;3.08;;;2.88;;
20065;SDS011;10193;48.884;9.182;2024-02-16T02:01:31;3.22;;;2.78;;
20065;SDS011;10193;48.884;9.182;2024-02-16T02:03:57;2.90;;;2.70;;
20065;SDS011;10193;48.884;9.182;2024-02-16T02:06:24;3.05;;;2.70;;
20065;SDS011;10193;48.884;9.182;2024-02-16T02:08:51;3.78;;;2.75;;
20065;SDS011;10193;48.884;9.182;2024-02-16T02:11:17;3.10;;;2.80;;
20065;SDS011;10193;48.884;9.182;2024-02-16T02:13:44;2.97;;;2.67;;
20065;SDS011;10193;48.884;9.182;2024-02-16T02:16:12;3.70;;;2.80;;
20065;SDS011;10193;48.884;9.182;2024-02-16T02:18:39;2.85;;;2.45;;
20065;SDS011;10193;48.884;9.182;2024-02-16T02:21:06;2.78;;;2.58;;
20065;SDS011;10193;48.884;9.182;2024-02-16T02:23:34;3.10;;;2.80;;
20065;SDS011;10193;48.884;9.182;2024-02-16T02:26:00;3.05;;;2.75;;
20065;SDS011;10193;48.884;9.182;2024-02-16T02:28:27;3.10;;;2.80;;
20065;SDS011;10193;48.884;9.182;2024-02-16T02:30:54;3.47;;;2.88;;
20065;SDS011;10193;48.884;9.182;2024-02-16T02:33:21;3.03;;;2.83;;
20065;SDS011;10193;48.884;9.182;2024-02-16T02:35:47;3.17;;;2.85;;
20065;SDS011;10193;48.884;9.182;2024-02-16T02:38:13;3.05;;;2.50;;
20065;SDS011;10193;48.884;9.182;2024-02-16T02:40:41;2.90;;;2.70;;
20065;SDS011;10193;48.884;9.182;2024-02-16T02:43:08;2.72;;;2.53;;
20065;SDS011;10193;48.884;9.182;2024-02-16T02:45:35;2.95;;;2.58;;
20065;SDS011;10193;48.884;9.182;2024-02-16T02:48:01;3.28;;;2.63;;
20065;SDS011;10193;48.884;9.182;2024-02-16T02:50:28;2.28;;;2.10;;
20065;SDS011;10193;48.884;9.182;2024-02-16T02:52:55;2.53;;;2.17;;
20065;SDS011;10193;48.884;9.182;2024-02-16T02:55:22;2.47;;;2.33;;
20065;SDS011;10193;48.884;9.182;2024-02-16T02:57:50;2.47;;;2.28;;
20065;SDS011;10193;48.884;9.182;2024-02-16T03:00:17;2.53;;;2.30;;
20065;SDS011;10193;48.884;9.182;2024-02-16T03:02:44;3.47;;;2.15;;
20065;SDS011;10193;48.884;9.182;2024-02-16T03:05:12;2.60;;;2.40;;
20065;SDS011;10193;48.884;9.182;2024-02-16T03:07:38;2.50;;;2.20;;
20065;SDS011;10193;48.884;9.182;2024-02-16T03:10:05;2.40;;;2.20;;
20065;SDS011;10193;48.884;9.182;2024-02-16T03:12:34;2.75;;;2.30;;
20065;SDS011;10193;48.884;9.182;2024-02-16T03:15:02;2.45;;;2.17;;
20065;SDS011;10193;48.884;9.182;2024-02-16T03:17:30;3.63;;;2.20;;
20065;SDS011;10193;48.884;9.182;2024-02-16T03:19:56;2.50;;;2.25;;
20065;SDS011;10193;48.884;9.182;2024-02-16T03:22:23;2.20;;;2.00;;
20065;SDS011;10193;48.884;9.182;2024-02-16T03:24:50;3.97;;;2.30;;
20065;SDS011;10193;48.884;9.182;2024-02-16T03:27:16;2.40;;;2.20;;
20065;SDS011;10193;48.884;9.182;2024-02-16T03:29:43;2.45;;;2.25;;
20065;SDS011;10193;48.884;9.182;2024-02-16T03:32:11;2.72;;;2.50;;
20065;SDS011;10193;48.884;9.182;2024-02-16T03:34:38;2.65;;;2.45;;
20065;SDS011;10193;48.884;9.182;2024-02-16T03:37:05;2.88;;;2.50;;
20065;SDS011;10193;48.884;9.182;2024-02-16T03:39:31;2.60;;;2.40;;
20065;SDS011;10193;48.884;9.182;2024-02-16T03:41:58;2.38;;;2.17;;
20065;SDS011;10193;48.884;9.182;2024-02-16T03:44:25;2.90;;;2.30;;
20065;SDS011;10193;48.884;9.182;2024-02-16T03:46:51;3.47;;;2.50;;
20065;SDS011;10193;48.884;9.182;2024-02-16T03:49:19;2.88;;;2.65;;
20065;SDS011;10193;48.884;9.182;2024-02-16T03:51:46;3.05;;;2.80;;
20065;SDS011;10193;48.884;9.182;2024-02-16T03:54:13;3.15;;;2.60;;
20065;SDS011;10193;48.884;9.182;2024-02-16T03:56:39;2.83;;;2.63;;
20065;SDS011;10193;48.884;9.182;2024-02-16T03:59:06;3.30;;;3.00;;
20065;SDS011;10193;48.884;9.182;2024-02-16T04:01:33;3.40;;;3.08;;
20065;SDS011;10193;48.884;9.182;2024-02-16T04:03:59;3.40;;;3.10;;
20065;SDS011;10193;48.884;9.182;2024-02-16T04:06:27;3.53;;;3.15;;
20065;SDS011;10193;48.884;9.182;2024-02-16T04:08:54;3.28;;;2.95;;
20065;SDS011;10193;48.884;9.182;2024-02-16T04:11:21;3.40;;;3.10;;
20065;SDS011;10193;48.884;9.182;2024-02-16T04:13:48;3.55;;;3.20;;
20065;SDS011;10193;48.884;9.182;2024-02-16T04:16:15;4.22;;;3.40;;
20065;SDS011;10193;48.884;9.182;2024-02-16T04:18:41;4.35;;;3.20;;
20065;SDS011;10193;48.884;9.182;2024-02-16T04:21:08;4.15;;;3.53;;
20065;SDS011;10193;48.884;9.182;2024-02-16T04:23:36;3.40;;;3.10;;
20065;SDS011;10193;48.884;9.182;2024-02-16T04:26:03;4.05;;;3.28;;
20065;SDS011;10193;48.884;9.182;2024-02-16T04:28:31;3.75;;;3.20;;
20065;SDS011;10193;48.884;9.182;2024-02-16T04:30:58;4.45;;;3.05;;
20065;SDS011;10193;48.884;9.182;2024-02-16T04:33:25;3.38;;;2.95;;
20065;SDS011;10193;48.884;9.182;2024-02-16T04:35:51;3.55;;;2.60;;
20065;SDS011;10193;48.884;9.182;2024-02-16T04:38:18;3.17;;;2.83;;
20065;SDS011;10193;48.884;9.182;2024-02-16T04:40:46;5.60;;;2.80;;
20065;SDS011;10193;48.884;9.182;2024-02-16T04:43:13;4.43;;;2.60;;
20065;SDS011;10193;48.884;9.182;2024-02-16T04:45:40;2.85;;;2.30;;
20065;SDS011;10193;48.884;9.182;2024-02-16T04:48:07;2.60;;;2.40;;
20065;SDS011;10193;48.884;9.182;2024-02-16T04:50:34;2.38;;;2.17;;
20065;SDS011;10193;48.884;9.182;2024-02-16T04:53:01;2.88;;;2.35;;
20065;SDS011;10193;48.884;9.182;2024-02-16T04:55:28;2.83;;;2.30;;
20065;SDS011;10193;48.884;9.182;2024-02-16T04:57:56;2.95;;;2.60;;
20065;SDS011;10193;48.884;9.182;2024-02-16T05:00:23;2.90;;;2.30;;
20065;SDS011;10193;48.884;9.182;2024-02-16T05:02:50;2.65;;;2.45;;
20065;SDS011;10193;48.884;9.182;2024-02-16T05:05:17;2.80;;;2.53;;
20065;SDS011;10193;48.884;9.182;2024-02-16T05:07:46;2.20;;;2.00;;
20065;SDS011;10193;48.884;9.182;2024-02-16T05:10:14;2.40;;;2.20;;
20065;SDS011;10193;48.884;9.182;2024-02-16T05:12:41;2.50;;;2.30;;
20065;SDS011;10193;48.884;9.182;2024-02-16T05:15:09;2.72;;;2.45;;
20065;SDS011;10193;48.884;9.182;2024-02-16T05:17:38;2.75;;;2.50;;
20065;SDS011;10193;48.884;9.182;2024-02-16T05:20:07;2.50;;;2.30;;
20065;SDS011;10193;48.884;9.182;2024-02-16T05:22:40;2.38;;;2.13;;
20065;SDS011;10193;48.884;9.182;2024-02-16T05:25:07;2.45;;;2.30;;
20065;SDS011;10193;48.884;9.182;2024-02-16T05:27:34;2.60;;;2.40;;
20065;SDS011;10193;48.884;9.182;2024-02-16T05:30:01;2.95;;;2.65;;
20065;SDS011;10193;48.884;9.182;2024-02-16T05:32:30;2.63;;;2.42;;
20065;SDS011;10193;48.884;9.182;2024-02-16T05:34:57;2.83;;;2.30;;
20065;SDS011;10193;48.884;9.182;2024-02-16T05:37:25;3.10;;;2.42;;
20065;SDS011;10193;48.884;9.182;2024-02-16T05:39:51;2.38;;;2.17;;
20065;SDS011;10193;48.884;9.182;2024-02-16T05:42:22;3.97;;;2.58;;
20065;SDS011;10193;48.884;9.182;2024-02-16T05:44:49;3.05;;;2.45;;
20065;SDS011;10193;48.884;9.182;2024-02-16T05:47:16;2.65;;;2.45;;
20065;SDS011;10193;48.884;9.182;2024-02-16T05:49:44;4.03;;;2.58;;
20065;SDS011;10193;48.884;9.182;2024-02-16T05:52:12;2.60;;;2.40;;
20065;SDS011;10193;48.884;9.182;2024-02-16T05:54:45;2.70;;;2.47;;
20065;SDS011;10193;48.884;9.182;2024-02-16T05:57:13;3.25;;;2.70;;
20065;SDS011;10193;48.884;9.182;2024-02-16T05:59:40;2.80;;;2.55;;
20065;SDS011;10193;48.884;9.182;2024-02-16T06:02:07;2.70;;;2.50;;
20065;SDS011;10193;48.884;9.182;2024-02-16T06:04:35;3.05;;;2.67;;
20065;SDS011;10193;48.884;9.182;2024-02-16T06:07:03;4.75;;;2.80;;
20065;SDS011;10193;48.884;9.182;2024-02-16T06:09:30;3.30;;;3.00;;
20065;SDS011;10193;48.884;9.182;2024-02-16T06:12:00;3.33;;;3.03;;
20065;SDS011;10193;48.884;9.182;2024-02-16T06:14:29;3.45;;;2.85;;
20065;SDS011;10193;48.884;9.182;2024-02-16T06:16:56;3.10;;;2.80;;
20065;SDS011;10193;48.884;9.182;2024-02-16T06:19:23;2.65;;;2.45;;
20065;SDS011;10193;48.884;9.182;2024-02-16T06:21:50;6.00;;;2.70;;
20065;SDS011;10193;48.884;9.182;2024-02-16T06:24:18;3.58;;;2.60;;
20065;SDS011;10193;48.884;9.182;2024-02-16T06:26:44;3.10;;;2.78;;
20065;SDS011;10193;48.884;9.182;2024-02-16T06:29:11;3.65;;;2.67;;
20065;SDS011;10193;48.884;9.182;2024-02-16T06:31:39;3.47;;;2.90;;
20065;SDS011;10193;48.884;9.182;2024-02-16T06:34:05;3.25;;;2.95;;
20065;SDS011;10193;48.884;9.182;2024-02-16T06:36:33;2.95;;;2.70;;
20065;SDS011;10193;48.884;9.182;2024-02-16T06:39:00;4.10;;;2.83;;
20065;SDS011;10193;48.884;9.182;2024-02-16T06:41:28;3.22;;;2.92;;
20065;SDS011;10193;48.884;9.182;2024-02-16T06:43:55;3.17;;;2.60;;
20065;SDS011;10193;48.884;9.182;2024-02-16T06:46:21;3.58;;;2.80;;
20065;SDS011;10193;48.884;9.182;2024-02-16T06:48:49;2.80;;;2.60;;
20065;SDS011;10193;48.884;9.182;2024-02-16T06:51:17;3.15;;;2.80;;
20065;SDS011;10193;48.884;9.182;2024-02-16T06:53:43;3.35;;;2.97;;
20065;SDS011;10193;48.884;9.182;2024-02-16T06:56:10;3.35;;;2.60;;
20065;SDS011;10193;48.884;9.182;2024-02-16T06:58:38;3.80;;;2.72;;
20065;SDS011;10193;48.884;9.182;2024-02-16T07:01:05;2.95;;;2.75;;
20065;SDS011;10193;48.884;9.182;2024-02-16T07:03:32;2.85;;;2.65;;
20065;SDS011;10193;48.884;9.182;2024-02-16T07:06:01;3.90;;;2.85;;
20065;SDS011;10193;48.884;9.182;2024-02-16T07:08:28;3.22;;;2.92;;
20065;SDS011;10193;48.884;9.182;2024-02-16T07:10:55;2.97;;;2.78;;
20065;SDS011;10193;48.884;9.182;2024-02-16T07:13:22;3.40;;;2.80;;
20065;SDS011;10193;48.884;9.182;2024-02-16T07:15:50;2.90;;;2.58;;
20065;SDS011;10193;48.884;9.182;2024-02-16T07:18:16;3.10;;;2.80;;
20065;SDS011;10193;48.884;9.182;2024-02-16T07:20:43;3.15;;;2.85;;
20065;SDS011;10193;48.884;9.182;2024-02-16T07:23:10;3.40;;;3.10;;
20065;SDS011;10193;48.884;9.182;2024-02-16T07:25:37;3.33;;;2.80;;
20065;SDS011;10193;48.884;9.182;2024-02-16T07:28:04;2.90;;;2.55;;
20065;SDS011;10193;48.884;9.182;2024-02-16T07:30:31;3.00;;;2.70;;
20065;SDS011;10193;48.884;9.182;2024-02-16T07:32:59;3.53;;;3.15;;
20065;SDS011;10193;48.884;9.182;2024-02-16T07:35:26;2.92;;;2.72;;
20065;SDS011;10193;48.884;9.182;2024-02-16T07:37:52;3.30;;;3.00;;
20065;SDS011;10193;48.884;9.182;2024-02-16T07:40:19;4.65;;;2.97;;
20065;SDS011;10193;48.884;9.182;2024-02-16T07:42:45;2.95;;;2.65;;
20065;SDS011;10193;48.884;9.182;2024-02-16T07:45:12;3.80;;;2.90;;
20065;SDS011;10193;48.884;9.182;2024-02-16T07:47:40;2.97;;;2.72;;
20065;SDS011;10193;48.884;9.182;2024-02-16T07:50:08;3.08;;;2.88;;
20065;SDS011;10193;48.884;9.182;2024-02-16T07:52:35;3.70;;;3.00;;
20065;SDS011;10193;48.884;9.182;2024-02-16T07:55:04;2.97;;;2.75;;
20065;SDS011;10193;48.884;9.182;2024-02-16T07:57:31;3.75;;;3.20;;
20065;SDS011;10193;48.884;9.182;2024-02-16T07:59:58;3.28;;;2.70;;
20065;SDS011;10193;48.884;9.182;2024-02-16T08:02:24;4.00;;;2.95;;
20065;SDS011;10193;48.884;9.182;2024-02-16T08:04:51;3.28;;;2.97;;
20065;SDS011;10193;48.884;9.182;2024-02-16T08:07:19;3.17;;;2.83;;
20065;SDS011;10193;48.884;9.182;2024-02-16T08:09:46;2.85;;;2.60;;
20065;SDS011;10193;48.884;9.182;2024-02-16T08:12:13;3.15;;;2.40;;
20065;SDS011;10193;48.884;9.182;2024-02-16T08:14:40;2.83;;;2.63;;
20065;SDS011;10193;48.884;9.182;2024-02-16T08:17:07;3.20;;;2.90;;
20065;SDS011;10193;48.884;9.182;2024-02-16T08:19:34;4.07;;;3.00;;
20065;SDS011;10193;48.884;9.182;2024-02-16T08:22:02;3.53;;;2.80;;
20065;SDS011;10193;48.884;9.182;2024-02-16T08:24:31;4.95;;;2.78;;
20065;SDS011;10193;48.884;9.182;2024-02-16T08:26:58;3.55;;;2.83;;
20065;SDS011;10193;48.884;9.182;2024-02-16T08:29:24;2.97;;;2.78;;
20065;SDS011;10193;48.884;9.182;2024-02-16T08:31:51;3.47;;;3.13;;
20065;SDS011;10193;48.884;9.182;2024-02-16T08:34:18;3.63;;;2.95;;
20065;SDS011;10193;48.884;9.182;2024-02-16T08:36:45;4.32;;;3.03;;
20065;SDS011;10193;48.884;9.182;2024-02-16T08:39:12;5.00;;;2.78;;
20065;SDS011;10193;48.884;9.182;2024-02-16T08:41:40;3.45;;;2.92;;
20065;SDS011;10193;48.884;9.182;2024-02-16T08:44:09;4.40;;;3.10;;
20065;SDS011;10193;48.884;9.182;2024-02-16T08:46:36;4.85;;;3.00;;
20065;SDS011;10193;48.884;9.182;2024-02-16T08:49:03;3.53;;;3.08;;
20065;SDS011;10193;48.884;9.182;2024-02-16T08:51:31;3.20;;;2.80;;
20065;SDS011;10193;48.884;9.182;2024-02-16T08:53:58;5.13;;;3.10;;
20065;SDS011;10193;48.884;9.182;2024-02-16T08:56:25;3.30;;;3.00;;
20065;SDS011;10193;48.884;9.182;2024-02-16T08:58:53;4.75;;;2.92;;
20065;SDS011;10193;48.884;9.182;2024-02-16T09:01:29;4.43;;;3.20;;
20065;SDS011;10193;48.884;9.182;2024-02-16T09:03:56;4.15;;;2.97;;
20065;SDS011;10193;48.884;9.182;2024-02-16T09:06:23;3.47;;;2.88;;
20065;SDS011;10193;48.884;9.182;2024-02-16T09:08:50;3.30;;;3.00;;
20065;SDS011;10193;48.884;9.182;2024-02-16T09:11:16;3.67;;;3.20;;
20065;SDS011;10193;48.884;9.182;2024-02-16T09:13:43;4.25;;;2.92;;
20065;SDS011;10193;48.884;9.182;2024-02-16T09:16:11;3.05;;;2.70;;
20065;SDS011;10193;48.884;9.182;2024-02-16T09:18:38;7.97;;;3.08;;
20065;SDS011;10193;48.884;9.182;2024-02-16T09:21:04;3.30;;;2.90;;
20065;SDS011;10193;48.884;9.182;2024-02-16T09:23:31;3.00;;;2.72;;
20065;SDS011;10193;48.884;9.182;2024-02-16T09:25:59;2.50;;;2.30;;
20065;SDS011;10193;48.884;9.182;2024-02-16T09:28:25;3.33;;;3.00;;
20065;SDS011;10193;48.884;9.182;2024-02-16T09:30:54;5.85;;;2.78;;
20065;SDS011;10193;48.884;9.182;2024-02-16T09:33:22;3.47;;;2.80;;
20065;SDS011;10193;48.884;9.182;2024-02-16T09:35:51;2.60;;;2.40;;
20065;SDS011;10193;48.884;9.182;2024-02-16T09:38:18;2.75;;;2.50;;
20065;SDS011;10193;48.884;9.182;2024-02-16T09:40:46;2.63;;;2.22;;
20065;SDS011;10193;48.884;9.182;2024-02-16T09:43:21;2.42;;;2.22;;
20065;SDS011;10193;48.884;9.182;2024-02-16T09:45:52;3.00;;;2.42;;
20065;SDS011;10193;48.884;9.182;2024-02-16T09:48:19;3.38;;;2.70;;
20065;SDS011;10193;48.884;9.182;2024-02-16T09:50:48;5.30;;;2.30;;
20065;SDS011;10193;48.884;9.182;2024-02-16T09:53:17;2.90;;;2.70;;
20065;SDS011;10193;48.884;9.182;2024-02-16T09:55:47;2.90;;;2.60;;
20065;SDS011;10193;48.884;9.182;2024-02-16T09:58:16;3.05;;;2.55;;
20065;SDS011;10193;48.884;9.182;2024-02-16T10:00:47;2.95;;;2.72;;
20065;SDS011;10193;48.884;9.182;2024-02-16T10:03:21;3.00;;;2.58;;
20065;SDS011;10193;48.884;9.182;2024-02-16T10:06:03;3.38;;;2.78;;
20065;SDS011;10193;48.884;9.182;2024-02-16T10:08:31;3.30;;;2.70;;
20065;SDS011;10193;48.884;9.182;2024-02-16T10:11:01;3.05;;;2.80;;
20065;SDS011;10193;48.884;9.182;2024-02-16T10:13:29;2.60;;;2.40;;
20065;SDS011;10193;48.884;9.182;2024-02-16T10:16:04;3.10;;;2.60;;
20065;SDS011;10193;48.884;9.182;2024-02-16T10:18:33;2.63;;;2.42;;
20065;SDS011;10193;48.884;9.182;2024-02-16T10:21:01;4.60;;;2.50;;
20065;SDS011;10193;48.884;9.182;2024-02-16T10:23:28;2.55;;;2.35;;
20065;SDS011;10193;48.884;9.182;2024-02-16T10:25:55;2.67;;;2.20;;
20065;SDS011;10193;48.884;9.182;2024-02-16T10:28:24;2.85;;;2.10;;
20065;SDS011;10193;48.884;9.182;2024-02-16T10:30:56;2.13;;;2.00;;
20065;SDS011;10193;48.884;9.182;2024-02-16T10:33:26;2.28;;;2.08;;
20065;SDS011;10193;48.884;9.182;2024-02-16T10:35:54;1.75;;;1.65;;
20065;SDS011;10193;48.884;9.182;2024-02-16T10:38:25;2.03;;;1.90;;
20065;SDS011;10193;48.884;9.182;2024-02-16T10:40:52;9.95;;;2.15;;
20065;SDS011;10193;48.884;9.182;2024-02-16T10:43:22;2.33;;;1.80;;
20065;SDS011;10193;48.884;9.182;2024-02-16T10:45:50;2.35;;;1.70;;
20065;SDS011;10193;48.884;9.182;2024-02-16T10:48:18;1.60;;;1.50;;
20065;SDS011;10193;48.884;9.182;2024-02-16T10:50:45;1.98;;;1.60;;
20065;SDS011;10193;48.884;9.182;2024-02-16T10:53:14;2.75;;;1.40;;
20065;SDS011;10193;48.884;9.182;2024-02-16T10:55:47;2.65;;;1.80;;
20065;SDS011;10193;48.884;9.182;2024-02-16T10:58:14;2.55;;;1.48;;
20065;SDS011;10193;48.884;9.182;2024-02-16T11:00:50;1.58;;;1.40;;
20065;SDS011;10193;48.884;9.182;2024-02-16T11:03:17;1.73;;;1.40;;
20065;SDS011;10193;48.884;9.182;2024-02-16T11:05:49;3.15;;;1.40;;
20065;SDS011;10193;48.884;9.182;2024-02-16T11:08:16;1.23;;;1.13;;
20065;SDS011;10193;48.884;9.182;2024-02-16T11:10:55;1.52;;;1.40;;
20065;SDS011;10193;48.884;9.182;2024-02-16T11:13:27;2.53;;;1.30;;
20065;SDS011;10193;48.884;9.182;2024-02-16T11:15:58;1.77;;;1.33;;
20065;SDS011;10193;48.884;9.182;2024-02-16T11:18:26;1.98;;;1.58;;
20065;SDS011;10193;48.884;9.182;2024-02-16T11:20:53;1.92;;;1.20;;
20065;SDS011;10193;48.884;9.182;2024-02-16T11:23:24;3.20;;;1.38;;
20065;SDS011;10193;48.884;9.182;2024-02-16T11:25:54;3.15;;;1.20;;
20065;SDS011;10193;48.884;9.182;2024-02-16T11:28:30;1.92;;;1.70;;
20065;SDS011;10193;48.884;9.182;2024-02-16T11:30:58;1.73;;;1.63;;
20065;SDS011;10193;48.884;9.182;2024-02-16T11:33:25;1.50;;;1.40;;
20065;SDS011;10193;48.884;9.182;2024-02-16T11:35:53;1.50;;;1.40;;
20065;SDS011;10193;48.884;9.182;2024-02-16T11:38:21;1.70;;;1.60;;
20065;SDS011;10193;48.884;9.182;2024-02-16T11:40:56;1.70;;;1.60;;
20065;SDS011;10193;48.884;9.182;2024-02-16T11:43:23;3.22;;;1.55;;
20065;SDS011;10193;48.884;9.182;2024-02-16T11:45:51;1.67;;;1.58;;
20065;SDS011;10193;48.884;9.182;2024-02-16T11:48:18;1.55;;;1.45;;
20065;SDS011;10193;48.884;9.182;2024-02-16T11:50:47;1.92;;;1.65;;
20065;SDS011;10193;48.884;9.182;2024-02-16T11:53:17;1.70;;;1.60;;
20065;SDS011;10193;48.884;9.182;2024-02-16T11:55:46;1.60;;;1.50;;
20065;SDS011;10193;48.884;9.182;2024-02-16T11:58:15;1.63;;;1.52;;
20065;SDS011;10193;48.884;9.182;2024-02-16T12:00:43;1.80;;;1.70;;
20065;SDS011;10193;48.884;9.182;2024-02-16T12:03:10;11.20;;;2.08;;
20065;SDS011;10193;48.884;9.182;2024-02-16T12:05:37;3.80;;;1.85;;
20065;SDS011;10193;48.884;9.182;2024-02-16T12:08:05;1.98;;;1.70;;
20065;SDS011;10193;48.884;9.182;2024-02-16T12:10:32;2.03;;;1.70;;
20065;SDS011;10193;48.884;9.182;2024-02-16T12:12:59;1.95;;;1.75;;
20065;SDS011;10193;48.884;9.182;2024-02-16T12:15:27;2.20;;;1.77;;
20065;SDS011;10193;48.884;9.182;2024-02-16T12:17:58;2.10;;;1.83;;
20065;SDS011;10193;48.884;9.182;2024-02-16T12:20:25;2.33;;;1.77;;
20065;SDS011;10193;48.884;9.182;2024-02-16T12:22:52;2.75;;;1.60;;
20065;SDS011;10193;48.884;9.182;2024-02-16T12:25:19;1.60;;;1.50;;
20065;SDS011;10193;48.884;9.182;2024-02-16T12:27:45;2.83;;;1.80;;
20065;SDS011;10193;48.884;9.182;2024-02-16T12:30:12;3.55;;;1.98;;
20065;SDS011;10193;48.884;9.182;2024-02-16T12:32:40;2.28;;;2.00;;
20065;SDS011;10193;48.884;9.182;2024-02-16T12:35:08;2.83;;;1.88;;
20065;SDS011;10193;48.884;9.182;2024-02-16T12:37:34;2.33;;;1.70;;
20065;SDS011;10193;48.884;9.182;2024-02-16T12:40:02;2.90;;;1.83;;
20065;SDS011;10193;48.884;9.182;2024-02-16T12:42:31;1.80;;;1.55;;
20065;SDS011;10193;48.884;9.182;2024-02-16T12:44:58;2.83;;;1.75;;
20065;SDS011;10193;48.884;9.182;2024-02-16T12:47:25;1.90;;;1.77;;
20065;SDS011;10193;48.884;9.182;2024-02-16T12:49:55;3.35;;;1.83;;
20065;SDS011;10193;48.884;9.182;2024-02-16T12:52:22;2.85;;;1.92;;
20065;SDS011;10193;48.884;9.182;2024-02-16T12:54:49;2.63;;;1.70;;
20065;SDS011;10193;48.884;9.182;2024-02-16T12:57:15;3.78;;;1.70;;
20065;SDS011;10193;48.884;9.182;2024-02-16T12:59:42;3.25;;;1.58;;
20065;SDS011;10193;48.884;9.182;2024-02-16T13:02:08;1.88;;;1.50;;
20065;SDS011;10193;48.884;9.182;2024-02-16T13:04:35;1.77;;;1.67;;
20065;SDS011;10193;48.884;9.182;2024-02-16T13:07:03;4.47;;;1.60;;
20065;SDS011;10193;48.884;9.182;2024-02-16T13:09:30;2.08;;;1.55;;
20065;SDS011;10193;48.884;9.182;2024-02-16T13:11:57;3.38;;;1.70;;
20065;SDS011;10193;48.884;9.182;2024-02-16T13:14:24;3.55;;;1.92;;
20065;SDS011;10193;48.884;9.182;2024-02-16T13:16:52;2.03;;;1.88;;
20065;SDS011;10193;48.884;9.182;2024-02-16T13:19:19;2.35;;;1.50;;
20065;SDS011;10193;48.884;9.182;2024-02-16T13:21:45;2.53;;;1.90;;
20065;SDS011;10193;48.884;9.182;2024-02-16T13:24:13;3.00;;;1.63;;
20065;SDS011;10193;48.884;9.182;2024-02-16T13:26:40;1.92;;;1.67;;
20065;SDS011;10193;48.884;9.182;2024-02-16T13:29:07;2.15;;;1.55;;
20065;SDS011;10193;48.884;9.182;2024-02-16T13:31:33;2.70;;;1.90;;
20065;SDS011;10193;48.884;9.182;2024-02-16T13:34:00;2.15;;;1.75;;
20065;SDS011;10193;48.884;9.182;2024-02-16T13:36:27;2.08;;;1.80;;
20065;SDS011;10193;48.884;9.182;2024-02-16T13:38:53;1.75;;;1.60;;
20065;SDS011;10193;48.884;9.182;2024-02-16T13:41:21;1.98;;;1.77;;
20065;SDS011;10193;48.884;9.182;2024-02-16T13:43:48;1.70;;;1.60;;
20065;SDS011;10193;48.884;9.182;2024-02-16T13:46:16;2.67;;;1.67;;
20065;SDS011;10193;48.884;9.182;2024-02-16T13:48:43;2.45;;;1.73;;
20065;SDS011;10193;48.884;9.182;2024-02-16T13:51:10;3.20;;;1.83;;
20065;SDS011;10193;48.884;9.182;2024-02-16T13:53:36;2.45;;;1.30;;
20065;SDS011;10193;48.884;9.182;2024-02-16T13:56:03;1.92;;;1.33;;
20065;SDS011;10193;48.884;9.182;2024-02-16T13:58:32;2.22;;;1.40;;
20065;SDS011;10193;48.884;9.182;2024-02-16T14:01:00;1.77;;;1.30;;
20065;SDS011;10193;48.884;9.182;2024-02-16T14:03:28;2.50;;;1.50;;
20065;SDS011;10193;48.884;9.182;2024-02-16T14:05:54;2.42;;;1.60;;
20065;SDS011;10193;48.884;9.182;2024-02-16T14:08:21;1.60;;;1.33;;
20065;SDS011;10193;48.884;9.182;2024-02-16T14:10:48;2.65;;;1.40;;
20065;SDS011;10193;48.884;9.182;2024-02-16T14:13:15;2.70;;;1.63;;
20065;SDS011;10193;48.884;9.182;2024-02-16T14:15:43;2.92;;;1.30;;
20065;SDS011;10193;48.884;9.182;2024-02-16T14:18:10;1.20;;;1.00;;
20065;SDS011;10193;48.884;9.182;2024-02-16T14:20:37;1.70;;;1.30;;
20065;SDS011;10193;48.884;9.182;2024-02-16T14:23:04;2.35;;;1.27;;
20065;SDS011;10193;48.884;9.182;2024-02-16T14:25:32;1.42;;;1.23;;
20065;SDS011;10193;48.884;9.182;2024-02-16T14:28:00;2.65;;;1.38;;
20065;SDS011;10193;48.884;9.182;2024-02-16T14:30:26;3.70;;;1.73;;
20065;SDS011;10193;48.884;9.182;2024-02-16T14:32:54;2.60;;;1.40;;
20065;SDS011;10193;48.884;9.182;2024-02-16T14:35:21;2.58;;;1.40;;
20065;SDS011;10193;48.884;9.182;2024-02-16T14:37:48;2.47;;;1.50;;
20065;SDS011;10193;48.884;9.182;2024-02-16T14:40:15;2.40;;;1.55;;
20065;SDS011;10193;48.884;9.182;2024-02-16T14:42:42;2.75;;;1.70;;
20065;SDS011;10193;48.884;9.182;2024-02-16T14:45:09;2.75;;;1.40;;
20065;SDS011;10193;48.884;9.182;2024-02-16T14:47:44;5.97;;;1.55;;
20065;SDS011;10193;48.884;9.182;2024-02-16T14:50:12;1.80;;;1.45;;